• Join FlightAware (Why Join?)
  • Login
  • US Flag 
06:30AM EDT


 

Airport Tracker/Info


-or-


 

Live Flight TrackerFlight Track Log ✈ DAL1981 ✈ 13-Jun-2013 ✈ KSMF - KMSP

Flight Track Log - Related Links

Times and Time Zones

All times are in EDT time to prevent confusion due to time zone crossing. See the DAL1981 flight status page for this flight to view local times or setup timezone preferences in your user account.

Time Position Orientation Groundspeed Altitude Reporting Facility
EDT Latitude Longitude Course Direction KTS MPH feet Rate Location/Type
03:53PM 38.7333 -121.5833 78° East 156 180 1,600  Level Northern Cal TRACON
03:54PM 38.7500 -121.5333 67° East 218 251 2,600 1,680 Climbing Northern Cal TRACON
03:55PM 38.7500 -121.4333 90° East 273 314 4,900 2,100 Climbing Northern Cal TRACON
03:56PM 38.5003 -121.2324 67° East  Level FlightAware Approximate
03:56PM 38.7500 -121.3333 90° East 289 333 6,900  Level Northern Cal TRACON
03:57PM 38.5398 -121.0676 76° East  Level FlightAware Approximate
03:57PM 38.7500 -121.2333 90° East 301 346 9,300  Level Northern Cal TRACON
03:58PM 38.5697 -120.8990 78° East  Level FlightAware Approximate
03:58PM 38.7333 -121.1167 100° East 330 380 11,000  Level Northern Cal TRACON
03:59PM 38.7394 -121.0342 85° East 359 413 11,600 1,440 Climbing Oakland Center
04:00PM 38.7364 -120.8908 92° East 393 452 13,600 1,800 Climbing Oakland Center
04:01PM 38.7553 -120.7514 80° East 409 471 15,400 1,800 Climbing Oakland Center
04:02PM 38.8278 -120.6378 51° Northeast 410 472 17,300 1,740 Climbing Oakland Center
04:03PM 38.9036 -120.5211 50° Northeast 424 488 19,000 1,680 Climbing Oakland Center
04:04PM 38.9956 -120.3778 50° Northeast 433 498 20,800 1,560 Climbing Oakland Center
04:05PM 39.0747 -120.2550 50° Northeast 444 511 22,300 1,260 Climbing Oakland Center
04:06PM 39.1589 -120.1239 50° Northeast 454 522 23,500 1,080 Climbing Oakland Center
04:07PM 39.2411 -119.9964 50° Northeast 464 534 24,600 900 Climbing Oakland Center
04:08PM 39.3281 -119.8617 50° Northeast 480 552 25,400 780 Climbing Oakland Center
04:09PM 39.4147 -119.7242 51° Northeast 489 563 26,200 540 Climbing Oakland Center
04:10PM 39.5039 -119.5811 51° Northeast 502 578 26,600 780 Climbing Oakland Center
04:11PM 39.5961 -119.4347 51° Northeast 517 595 27,900 1,200 Climbing Oakland Center
04:12PM 39.6875 -119.2872 51° Northeast 520 598 29,100 1,020 Climbing Oakland Center
04:13PM 39.7789 -119.1422 51° Northeast 517 595 30,000 420 Climbing Oakland Center
04:14PM 39.8681 -118.9981 51° Northeast 509 586 30,000  Level Oakland Center
04:15PM 39.9572 -118.8514 52° Northeast 511 588 30,000 240 Level Oakland Center
04:16PM 40.0469 -118.7061 51° Northeast 511 588 30,500 480 Climbing Oakland Center
04:17PM 40.1200 -118.5039 65° Northeast 510 587 31,000 240 Climbing Oakland Center
04:18PM 40.1708 -118.3272 69° East 514 592 31,000  Level Oakland Center
04:19PM 40.2225 -118.1486 69° East 520 598 31,000  Level Oakland Center
04:20PM 40.2728 -117.9775 69° East 520 598 31,000  Level Oakland Center
04:21PM 40.3214 -117.8044 70° East 524 603 31,000  Level Oakland Center
04:22PM 40.3794 -117.6000 69° East 533 613 31,000  Level Oakland Center
04:23PM 40.4297 -117.4256 69° East 533 613 31,100 60 Climbing Oakland Center
04:24PM 40.4383 -117.3956 69° East 533 613 31,100 -120 Level Salt Lake Center
04:25PM 40.4956 -117.1897 70° East 534 615 31,000 -60 Descending Salt Lake Center
04:26PM 40.5450 -117.0103 70° East 536 617 31,000  Level Salt Lake Center
04:27PM 40.6153 -116.8053 66° East 540 621 31,100  Climbing Salt Lake Center
04:28PM 40.6825 -116.6356 62° Northeast 541 623 31,000 -60 Descending Salt Lake Center
04:29PM 40.7478 -116.4669 63° Northeast 540 621 31,000  Level Salt Lake Center
04:30PM 40.8269 -116.2639 63° Northeast 553 636 31,000  Level Salt Lake Center
04:31PM 40.8936 -116.0875 63° Northeast 558 642 31,000  Level Salt Lake Center
04:32PM 40.9708 -115.8847 63° Northeast 555 639 31,100  Climbing Salt Lake Center
04:33PM 41.0364 -115.7086 64° Northeast 556 640 31,000 -60 Descending Salt Lake Center
04:34PM 41.1142 -115.5058 63° Northeast 553 636 31,000  Level Salt Lake Center
04:35PM 41.1786 -115.3331 64° Northeast 549 632 31,000  Level Salt Lake Center
04:36PM 41.2525 -115.1300 64° Northeast 547 629 31,000 -60 Level Salt Lake Center
04:37PM 41.3167 -114.9578 64° Northeast 543 625 30,900  Descending Salt Lake Center
04:38PM 41.3789 -114.7847 64° Northeast 544 626 31,000 60 Climbing Salt Lake Center
04:39PM 41.4597 -114.5669 64° Northeast 546 628 31,100  Climbing Salt Lake Center
04:40PM 41.5247 -114.3861 64° Northeast 542 624 31,000 -60 Descending Salt Lake Center
04:41PM 41.5900 -114.2031 64° Northeast 545 627 31,000  Level Salt Lake Center
04:42PM 41.6556 -114.0186 65° Northeast 548 631 31,000  Level Salt Lake Center
04:43PM 41.7222 -113.8333 64° Northeast 552 635 31,100  Climbing Salt Lake Center
04:44PM 41.7867 -113.6511 65° Northeast 543 625 31,100 -120 Level Salt Lake Center
04:45PM 41.8497 -113.4692 65° Northeast 538 619 30,900 -60 Descending Salt Lake Center
04:46PM 41.9272 -113.2506 64° Northeast 542 624 31,000 60 Climbing Salt Lake Center
04:47PM 41.9889 -113.0686 65° Northeast 539 620 31,100  Climbing Salt Lake Center
04:48PM 42.0508 -112.8900 65° Northeast 530 610 31,000 -60 Descending Salt Lake Center
04:49PM 42.1108 -112.7100 66° East 528 608 31,000  Level Salt Lake Center
04:51PM 42.1728 -112.5303 65° Northeast 527 606 31,000  Level Salt Lake Center
04:52PM 42.2328 -112.3500 66° East 529 609 31,000  Level Salt Lake Center
04:53PM 42.2922 -112.1658 66° East 534 615 31,000  Level Salt Lake Center
04:54PM 42.3633 -111.9469 66° East 531 611 31,000  Level Salt Lake Center
04:55PM 42.4225 -111.7633 66° East 532 612 31,000  Level Salt Lake Center
04:56PM 42.4817 -111.5806 66° East 532 612 31,000  Level Salt Lake Center
04:57PM 42.5586 -111.4092 59° Northeast 534 615 31,000  Level Salt Lake Center
04:58PM 42.6372 -111.2386 58° Northeast 534 615 31,000  Level Salt Lake Center
04:59PM 42.6908 -111.0517 69° East 531 611 31,000  Level Salt Lake Center
05:00PM 42.7369 -110.8325 74° East 526 605 31,000  Level Salt Lake Center
05:01PM 42.7703 -110.6489 76° East 524 603 31,000  Level Salt Lake Center
05:02PM 42.8083 -110.4392 76° East 516 594 31,100  Climbing Salt Lake Center
05:03PM 42.8414 -110.2561 76° East 519 597 31,000 -60 Descending Salt Lake Center
05:04PM 42.8786 -110.0442 76° East 518 596 31,000  Level Salt Lake Center
05:05PM 42.9122 -109.8478 77° East 517 595 31,000  Level Salt Lake Center
05:06PM 42.9458 -109.6625 76° East 522 601 31,000  Level Salt Lake Center
05:07PM 42.9894 -109.4456 75° East 526 605 31,000  Level Salt Lake Center
05:08PM 43.0450 -109.2639 67° East 537 618 31,000  Level Salt Lake Center
05:09PM 43.1075 -109.0867 64° Northeast 540 621 31,000  Level Salt Lake Center
05:10PM 43.1794 -108.8800 64° Northeast 538 619 31,000  Level Salt Lake Center
05:11PM 43.2489 -108.7064 61° Northeast 540 621 31,000  Level Salt Lake Center
05:12PM 43.3286 -108.5008 62° Northeast 545 627 31,000  Level Salt Lake Center
05:13PM 43.4008 -108.3275 60° Northeast 546 628 31,000  Level Salt Lake Center
05:14PM 43.4889 -108.1269 59° Northeast 548 631 31,000  Level Salt Lake Center
05:15PM 43.5625 -107.9550 59° Northeast 545 627 31,000  Level Salt Lake Center
05:16PM 43.6497 -107.7561 59° Northeast 543 625 31,000  Level Salt Lake Center
05:17PM 43.7217 -107.5856 60° Northeast 539 620 31,000  Level Salt Lake Center
05:18PM 43.8078 -107.3878 59° Northeast 547 629 31,000  Level Salt Lake Center
05:19PM 43.8836 -107.2144 59° Northeast 548 631 31,000  Level Salt Lake Center
05:20PM 43.9581 -107.0386 59° Northeast 550 633 31,000  Level Denver Center
05:22PM 44.0425 -106.8317 60° Northeast 550 633 31,000  Level Salt Lake Center
05:23PM 44.0869 -106.6156 74° East 524 603 31,000  Level Salt Lake Center
05:24PM 44.0972 -106.4256 86° East 515 593 31,000  Level Salt Lake Center
05:25PM 44.1111 -106.2328 84° East 517 595 31,000  Level Salt Lake Center
05:26PM 44.1289 -106.0372 83° East 522 601 31,000  Level Denver Center
05:27PM 44.1464 -105.8139 84° East 522 601 31,000 -60 Level Denver Center
05:28PM 44.1611 -105.6250 84° East 519 597 30,900  Descending Denver Center
05:29PM 44.1778 -105.4047 84° East 515 593 31,000  Climbing Denver Center
05:30PM 44.1903 -105.2156 85° East 513 590 31,000  Level Denver Center
05:31PM 44.2069 -104.9917 84° East 515 593 31,000  Level Denver Center
05:32PM 44.2200 -104.7981 85° East 518 596 31,000  Level Denver Center
05:33PM 44.2333 -104.6025 84° East 522 601 31,000  Level Denver Center
05:34PM 44.2475 -104.3811 85° East 519 597 31,000  Level Denver Center
05:35PM 44.2606 -104.1917 84° East 515 593 31,000  Level Denver Center
05:36PM 44.2739 -103.9675 85° East 517 595 31,000  Level Denver Center
05:37PM 44.2850 -103.7772 85° East 516 594 31,000  Level Denver Center
05:38PM 44.2981 -103.5544 85° East 515 593 31,000  Level Denver Center
05:39PM 44.3092 -103.3647 85° East 514 592 31,000  Level Denver Center
05:40PM 44.3208 -103.1383 86° East 516 594 31,000  Level Denver Center
05:41PM 44.3314 -102.9372 86° East 519 597 31,000  Level Denver Center
05:42PM 44.3411 -102.7372 86° East 519 597 31,000  Level Denver Center
05:43PM 44.3517 -102.5372 86° East 518 596 31,000  Level Denver Center
05:44PM 44.3622 -102.3358 86° East 519 597 31,000  Level Denver Center
05:45PM 44.3694 -102.1314 87° East 525 604 31,000  Level Denver Center
05:46PM 44.3800 -101.8908 86° East 520 598 31,000  Level Denver Center
05:47PM 44.3869 -101.6886 87° East 521 600 31,000  Level Denver Center
05:48PM 44.3931 -101.4872 87° East 521 600 31,000  Level Denver Center
05:49PM 44.3989 -101.2844 88° East 522 601 31,000  Level Denver Center
05:50PM 44.4058 -101.1675 85° East 519 597 31,000  Level Minneapolis Center
05:51PM 44.4139 -100.9656 87° East 519 597 31,000  Level Minneapolis Center
05:52PM 44.4208 -100.7606 87° East 525 604 31,000  Level Minneapolis Center
05:53PM 44.4275 -100.5567 87° East 527 606 31,000  Level Minneapolis Center
05:54PM 44.4331 -100.3508 88° East 531 611 31,000  Level Minneapolis Center
05:55PM 44.4408 -100.1064 87° East 529 609 31,000  Level Minneapolis Center
05:56PM 44.4469 -99.9050 87° East 525 604 31,000  Level Minneapolis Center
05:57PM 44.4514 -99.7028 88° East 524 603 31,000  Level Minneapolis Center
05:58PM 44.4558 -99.5008 88° East 523 602 31,000  Level Minneapolis Center
05:59PM 44.4606 -99.2997 88° East 521 600 31,000  Level Minneapolis Center
06:00PM 44.4661 -99.0619 88° East 513 590 31,000  Level Minneapolis Center
06:01PM 44.4703 -98.8633 88° East 513 590 31,000  Level Minneapolis Center
06:02PM 44.4728 -98.6647 89° East 513 590 31,000  Level Minneapolis Center
06:03PM 44.4775 -98.4642 88° East 515 593 31,000  Level Minneapolis Center
06:04PM 44.4783 -98.2692 90° East 512 589 31,000  Level Minneapolis Center
06:05PM 44.4772 -98.0308 90° East 511 588 31,000  Level Minneapolis Center
06:06PM 44.4789 -97.8317 89° East 512 589 31,000 -600 Level Minneapolis Center
06:07PM 44.4881 -97.6325 86° East 513 590 29,800 -1,260 Descending Minneapolis Center
06:08PM 44.5011 -97.4400 85° East 502 578 28,400 -1,200 Descending Minneapolis Center
06:10PM 44.5125 -97.2525 85° East 489 563 27,400 -1,020 Descending Minneapolis Center
06:11PM 44.5231 -97.0631 85° East 488 562 26,400 -1,020 Descending Minneapolis Center
06:12PM 44.5347 -96.8389 86° East 482 555 25,300 -1,020 Descending Minneapolis Center
06:13PM 44.5453 -96.6550 85° East 476 548 24,300 -660 Descending Minneapolis Center
06:14PM 44.5556 -96.4678 86° East 478 550 24,000 -180 Descending Minneapolis Center
06:15PM 44.5656 -96.2789 86° East 483 556 24,000  Level Minneapolis Center
06:16PM 44.5744 -96.0919 86° East 480 552 24,000  Level Minneapolis Center
06:17PM 44.5836 -95.9036 86° East 480 552 24,000  Level Minneapolis Center
06:18PM 44.5922 -95.7164 86° East 480 552 24,000 -60 Level Minneapolis Center
06:19PM 44.6003 -95.5378 86° East 464 534 23,900 -600 Descending Minneapolis Center
06:20PM 44.6086 -95.3194 87° East 466 536 22,800 -1,020 Descending Minneapolis Center
06:21PM 44.6164 -95.1378 86° East 467 537 21,800 -1,020 Descending Minneapolis Center
06:22PM 44.6231 -94.9617 87° East 460 529 20,800 -1,080 Descending Minneapolis Center
06:23PM 44.6289 -94.7897 87° East 452 520 19,600 -1,800 Descending Minneapolis Center
06:24PM 44.6353 -94.6214 87° East 445 512 17,100 -2,400 Descending Minneapolis Center
06:25PM 44.6411 -94.4561 87° East 425 489 14,600 -2,520 Descending Minneapolis Center
06:26PM 44.6664 -94.2750 79° East 394 453 11,900 -1,800 Descending Minneapolis Center
06:27PM 44.6994 -94.1306 72° East 389 448 11,000 -660 Descending Minneapolis Center
06:28PM 44.7308 -93.9897 73° East 378 435 10,600 -540 Descending Minneapolis Center
06:29PM 44.7575 -93.8683 73° East 326 375 9,900 -1,140 Descending Minneapolis Center
06:30PM 44.8100 -93.7817 49° Northeast 293 337 8,300 -1,440 Descending Minneapolis Center
06:31PM 44.8631 -93.7000 47° Northeast 283 326 7,000 -1,080 Descending Minneapolis Center
06:32PM 44.9261 -93.6053 47° Northeast 275 316 6,100 -1,200 Descending Minneapolis Center
06:33PM 44.9764 -93.5281 47° Northeast 266 306 4,600 -1,020 Descending Minneapolis Center
06:34PM 44.9753 -93.4378 91° East 244 281 4,000 -600 Descending Minneapolis Center